createdAt,value
2023-04-27T00:00:20.914Z,20.40
2023-04-27T00:01:20.842Z,20.41
2023-04-27T00:02:20.955Z,20.37
2023-04-27T00:03:21.113Z,20.41
2023-04-27T00:04:21.233Z,20.39
2023-04-27T00:05:20.863Z,20.39
2023-04-27T00:06:20.880Z,20.39
2023-04-27T00:07:20.769Z,20.37
2023-04-27T00:08:20.856Z,20.39
2023-04-27T00:09:20.754Z,20.34
2023-04-27T00:10:20.786Z,20.40
2023-04-27T00:11:20.724Z,20.37
2023-04-27T00:12:20.763Z,20.40
2023-04-27T00:13:20.701Z,20.34
2023-04-27T00:14:20.756Z,20.36
2023-04-27T00:15:20.677Z,20.39
2023-04-27T00:16:20.778Z,20.40
2023-04-27T00:17:20.666Z,20.37
2023-04-27T00:18:20.701Z,20.36
2023-04-27T00:19:20.644Z,20.36
2023-04-27T00:20:20.684Z,20.34
2023-04-27T00:21:20.634Z,20.37
2023-04-27T00:22:20.668Z,20.34
2023-04-27T00:23:20.584Z,20.32
2023-04-27T00:24:20.641Z,20.36
2023-04-27T00:25:20.581Z,20.34
2023-04-27T00:26:20.608Z,20.31
2023-04-27T00:27:20.540Z,20.36
2023-04-27T00:28:20.589Z,20.34
2023-04-27T00:29:20.514Z,20.31
2023-04-27T00:30:20.565Z,20.34
2023-04-27T00:31:20.537Z,20.32
2023-04-27T00:32:20.619Z,20.32
2023-04-27T00:33:20.470Z,20.39
2023-04-27T00:34:20.510Z,20.34
2023-04-27T00:35:20.452Z,20.32
2023-04-27T00:36:20.500Z,20.37
2023-04-27T00:37:20.430Z,20.34
2023-04-27T00:38:20.474Z,20.34
2023-04-27T00:39:20.401Z,20.32
2023-04-27T00:40:20.455Z,20.34
2023-04-27T00:41:20.377Z,20.36
2023-04-27T00:42:20.428Z,20.32
2023-04-27T00:43:20.369Z,20.29
2023-04-27T00:44:20.393Z,20.32
2023-04-27T00:45:20.332Z,20.32
2023-04-27T00:46:20.429Z,20.32
2023-04-27T00:47:20.325Z,20.31
2023-04-27T00:48:20.348Z,20.34
2023-04-27T00:49:20.290Z,20.32
2023-04-27T00:50:20.339Z,20.32
2023-04-27T00:51:20.261Z,20.32
2023-04-27T00:52:20.415Z,20.31
2023-04-27T00:53:20.242Z,20.34
2023-04-27T00:54:20.291Z,20.32
2023-04-27T00:55:20.226Z,20.32
2023-04-27T00:56:20.265Z,20.34
2023-04-27T00:57:20.189Z,20.34
2023-04-27T00:58:20.233Z,20.31
2023-04-27T00:59:20.172Z,20.29
2023-04-27T01:00:20.216Z,20.32
2023-04-27T01:01:20.197Z,20.31
2023-04-27T01:02:20.261Z,20.32
2023-04-27T01:03:20.377Z,20.34
2023-04-27T01:04:20.413Z,20.32
2023-04-27T01:05:20.110Z,20.34
2023-04-27T01:06:20.142Z,20.32
2023-04-27T01:07:20.083Z,20.28
2023-04-27T01:08:20.119Z,20.29
2023-04-27T01:09:20.115Z,20.32
2023-04-27T01:10:20.098Z,20.31
2023-04-27T01:11:20.053Z,20.26
2023-04-27T01:12:20.101Z,20.28
2023-04-27T01:13:20.013Z,20.31
2023-04-27T01:14:20.052Z,20.29
2023-04-27T01:15:20.100Z,20.32
2023-04-27T01:16:19.990Z,20.29
2023-04-27T01:17:20.027Z,20.28
2023-04-27T01:18:19.944Z,20.29
2023-04-27T01:19:20.016Z,20.31
2023-04-27T01:20:19.920Z,20.31
2023-04-27T01:21:20.004Z,20.29
2023-04-27T01:22:19.896Z,20.28
2023-04-27T01:23:19.972Z,20.25
2023-04-27T01:24:19.885Z,20.24
2023-04-27T01:25:19.940Z,20.22
2023-04-27T01:26:19.859Z,20.25
2023-04-27T01:27:19.932Z,20.28
2023-04-27T01:28:19.825Z,20.28
2023-04-27T01:29:19.901Z,20.24
2023-04-27T01:30:19.805Z,20.25
2023-04-27T01:31:19.930Z,20.24
2023-04-27T01:32:19.791Z,20.22
2023-04-27T01:33:19.850Z,20.26
2023-04-27T01:34:19.771Z,20.24
2023-04-27T01:35:19.851Z,20.26
2023-04-27T01:36:19.745Z,20.28
2023-04-27T01:37:19.815Z,20.25
2023-04-27T01:38:19.719Z,20.25
2023-04-27T01:39:19.788Z,20.22
2023-04-27T01:40:19.704Z,20.24
2023-04-27T01:41:19.774Z,20.22
2023-04-27T01:42:19.675Z,20.21
2023-04-27T01:43:19.732Z,20.22
2023-04-27T01:44:19.653Z,20.22
2023-04-27T01:45:19.726Z,20.22
2023-04-27T01:46:19.700Z,20.22
2023-04-27T01:47:19.706Z,20.22
2023-04-27T01:48:19.636Z,20.19
2023-04-27T01:49:19.728Z,20.21
2023-04-27T01:50:19.594Z,20.21
2023-04-27T01:51:19.646Z,20.21
2023-04-27T01:52:19.564Z,20.21
2023-04-27T01:53:19.631Z,20.21
2023-04-27T01:54:19.537Z,20.18
2023-04-27T01:55:19.615Z,20.18
2023-04-27T01:56:19.517Z,20.18
2023-04-27T01:57:19.579Z,20.18
2023-04-27T01:58:19.494Z,20.16
2023-04-27T01:59:19.565Z,20.21
2023-04-27T02:00:19.469Z,20.14
2023-04-27T02:01:19.554Z,20.22
2023-04-27T02:02:19.454Z,20.18
2023-04-27T02:03:19.632Z,20.16
2023-04-27T02:04:19.554Z,20.18
2023-04-27T02:05:19.497Z,20.19
2023-04-27T02:06:19.403Z,20.13
2023-04-27T02:07:19.470Z,20.14
2023-04-27T02:08:19.386Z,20.18
2023-04-27T02:09:19.443Z,20.16
2023-04-27T02:10:19.365Z,20.18
2023-04-27T02:11:19.432Z,20.14
2023-04-27T02:12:19.331Z,20.14
2023-04-27T02:13:20.412Z,20.19
2023-04-27T02:14:19.384Z,20.18
2023-04-27T02:15:19.319Z,20.18
2023-04-27T02:16:19.587Z,20.18
2023-04-27T02:17:19.288Z,20.16
2023-04-27T02:18:19.484Z,20.11
2023-04-27T02:19:19.268Z,20.11
2023-04-27T02:20:19.304Z,20.13
2023-04-27T02:21:19.242Z,20.14
2023-04-27T02:22:19.283Z,20.14
2023-04-27T02:23:19.223Z,20.13
2023-04-27T02:24:19.263Z,20.14
2023-04-27T02:25:19.200Z,20.13
2023-04-27T02:26:19.236Z,20.13
2023-04-27T02:27:19.176Z,20.11
2023-04-27T02:28:19.224Z,20.10
2023-04-27T02:29:19.150Z,20.14
2023-04-27T02:30:19.207Z,20.13
2023-04-27T02:31:19.167Z,20.11
2023-04-27T02:32:19.170Z,20.13
2023-04-27T02:33:19.107Z,20.11
2023-04-27T02:34:19.154Z,20.16
2023-04-27T02:35:19.081Z,20.13
2023-04-27T02:36:19.122Z,20.09
2023-04-27T02:37:19.060Z,20.07
2023-04-27T02:38:19.110Z,20.07
2023-04-27T02:39:19.037Z,20.09
2023-04-27T02:40:19.079Z,20.09
2023-04-27T02:41:19.019Z,20.11
2023-04-27T02:42:19.104Z,20.09
2023-04-27T02:43:18.994Z,20.11
2023-04-27T02:44:19.044Z,20.10
2023-04-27T02:45:18.977Z,20.10
2023-04-27T02:46:19.020Z,20.09
2023-04-27T02:47:18.945Z,20.09
2023-04-27T02:48:18.987Z,20.09
2023-04-27T02:49:18.930Z,20.06
2023-04-27T02:50:18.957Z,20.06
2023-04-27T02:51:18.900Z,20.07
2023-04-27T02:52:18.950Z,20.09
2023-04-27T02:53:18.883Z,20.07
2023-04-27T02:54:18.928Z,20.09
2023-04-27T02:55:18.853Z,20.09
2023-04-27T02:56:18.892Z,20.07
2023-04-27T02:57:18.833Z,20.09
2023-04-27T02:58:18.868Z,20.07
2023-04-27T02:59:18.806Z,20.06
2023-04-27T03:00:18.905Z,20.04
2023-04-27T03:01:18.856Z,20.07
2023-04-27T03:02:18.888Z,20.04
2023-04-27T03:03:18.892Z,20.06
2023-04-27T03:04:19.003Z,20.07
2023-04-27T03:05:18.738Z,20.06
2023-04-27T03:06:18.815Z,20.04
2023-04-27T03:07:18.715Z,20.06
2023-04-27T03:08:18.763Z,20.07
2023-04-27T03:09:18.700Z,20.03
2023-04-27T03:10:18.742Z,20.06
2023-04-27T03:11:18.673Z,20.04
2023-04-27T03:12:18.736Z,20.02
2023-04-27T03:13:18.656Z,20.03
2023-04-27T03:14:18.687Z,20.06
2023-04-27T03:15:18.623Z,20.02
2023-04-27T03:16:18.778Z,20.03
2023-04-27T03:17:18.596Z,20.03
2023-04-27T03:18:18.668Z,20.00
2023-04-27T03:19:18.582Z,20.03
2023-04-27T03:20:18.637Z,20.04
2023-04-27T03:21:18.563Z,20.00
2023-04-27T03:22:18.598Z,20.04
2023-04-27T03:23:18.545Z,20.02
2023-04-27T03:24:18.592Z,20.04
2023-04-27T03:25:18.511Z,20.03
2023-04-27T03:26:18.601Z,20.00
2023-04-27T03:27:18.491Z,20.02
2023-04-27T03:28:18.581Z,20.00
2023-04-27T03:29:18.466Z,19.99
2023-04-27T03:30:18.501Z,20.02
2023-04-27T03:31:18.493Z,19.95
2023-04-27T03:32:18.495Z,20.03
2023-04-27T03:33:18.422Z,19.96
2023-04-27T03:34:18.516Z,19.99
2023-04-27T03:35:18.400Z,20.02
2023-04-27T03:36:18.452Z,19.96
2023-04-27T03:37:18.382Z,19.96
2023-04-27T03:38:18.434Z,19.96
2023-04-27T03:39:18.359Z,19.99
2023-04-27T03:40:18.359Z,20.00
2023-04-27T03:41:18.400Z,20.00
2023-04-27T03:42:18.287Z,20.00
2023-04-27T03:43:18.317Z,19.96
2023-04-27T03:44:18.376Z,19.96
2023-04-27T03:45:18.277Z,20.00
2023-04-27T03:46:18.359Z,19.95
2023-04-27T03:47:18.212Z,19.99
2023-04-27T03:48:18.321Z,20.02
2023-04-27T03:49:18.192Z,19.96
2023-04-27T03:50:18.255Z,19.99
2023-04-27T03:51:18.173Z,19.99
2023-04-27T03:52:18.239Z,19.96
2023-04-27T03:53:18.139Z,19.94
2023-04-27T03:54:18.202Z,19.99
2023-04-27T03:55:18.118Z,19.96
2023-04-27T03:56:18.205Z,19.96
2023-04-27T03:57:18.098Z,20.00
2023-04-27T03:58:18.164Z,19.96
2023-04-27T03:59:18.073Z,20.00
2023-04-27T04:00:18.149Z,19.92
2023-04-27T04:01:18.053Z,19.96
2023-04-27T04:02:18.182Z,19.99
2023-04-27T04:03:18.281Z,19.94
2023-04-27T04:04:18.417Z,19.96
2023-04-27T04:05:18.031Z,19.94
2023-04-27T04:06:18.088Z,19.94
2023-04-27T04:07:18.007Z,19.96
2023-04-27T04:08:18.066Z,19.94
2023-04-27T04:09:17.966Z,19.96
2023-04-27T04:10:18.029Z,19.94
2023-04-27T04:11:17.941Z,19.95
2023-04-27T04:12:18.008Z,19.96
2023-04-27T04:13:17.920Z,19.96
2023-04-27T04:14:17.996Z,19.96
2023-04-27T04:15:17.900Z,19.94
2023-04-27T04:16:18.057Z,19.99
2023-04-27T04:17:17.879Z,19.96
2023-04-27T04:18:17.958Z,19.94
2023-04-27T04:19:18.479Z,19.92
2023-04-27T04:20:17.932Z,19.96
2023-04-27T04:21:17.834Z,19.99
2023-04-27T04:22:17.915Z,19.95
2023-04-27T04:23:17.812Z,19.94
2023-04-27T04:24:17.886Z,19.96
2023-04-27T04:25:17.801Z,19.99
2023-04-27T04:26:17.868Z,19.92
2023-04-27T04:27:17.772Z,19.95
2023-04-27T04:28:17.854Z,19.96
2023-04-27T04:29:17.747Z,19.92
2023-04-27T04:30:17.835Z,19.96
2023-04-27T04:31:17.777Z,19.99
2023-04-27T04:32:17.809Z,19.99
2023-04-27T04:33:17.701Z,19.96
2023-04-27T04:34:17.807Z,19.95
2023-04-27T04:35:17.682Z,19.99
2023-04-27T04:36:17.745Z,20.03
2023-04-27T04:37:17.659Z,19.96
2023-04-27T04:38:17.732Z,20.02
2023-04-27T04:39:17.637Z,19.99
2023-04-27T04:40:17.713Z,20.00
2023-04-27T04:41:17.612Z,20.02
2023-04-27T04:42:17.678Z,20.00
2023-04-27T04:43:17.625Z,20.02
2023-04-27T04:44:17.666Z,20.02
2023-04-27T04:45:17.573Z,20.04
2023-04-27T04:46:17.667Z,20.03
2023-04-27T04:47:17.552Z,20.06
2023-04-27T04:48:17.630Z,20.02
2023-04-27T04:49:17.525Z,20.03
2023-04-27T04:50:17.590Z,20.03
2023-04-27T04:51:17.505Z,20.03
2023-04-27T04:52:17.575Z,20.04
2023-04-27T04:53:17.480Z,20.02
2023-04-27T04:54:17.555Z,20.09
2023-04-27T04:55:17.482Z,20.06
2023-04-27T04:56:17.540Z,20.07
2023-04-27T04:57:17.443Z,20.04
2023-04-27T04:58:17.513Z,20.04
2023-04-27T04:59:17.415Z,20.06
2023-04-27T05:00:17.484Z,20.11
2023-04-27T05:01:17.444Z,20.09
2023-04-27T05:02:17.479Z,20.10
2023-04-27T05:03:17.511Z,20.09
2023-04-27T05:04:17.658Z,20.11
2023-04-27T05:05:17.355Z,20.10
2023-04-27T05:06:17.410Z,20.14
2023-04-27T05:07:20.245Z,20.14
2023-04-27T05:08:17.411Z,20.16
2023-04-27T05:09:17.303Z,20.16
2023-04-27T05:10:17.378Z,20.22
2023-04-27T05:11:17.278Z,20.26
2023-04-27T05:12:17.342Z,20.29
2023-04-27T05:13:17.257Z,20.34
2023-04-27T05:14:17.325Z,20.40
2023-04-27T05:15:17.241Z,20.46
2023-04-27T05:16:17.353Z,20.51
2023-04-27T05:17:17.213Z,20.58
2023-04-27T05:18:17.285Z,20.68
2023-04-27T05:19:17.190Z,20.73
2023-04-27T05:20:17.258Z,20.79
2023-04-27T05:21:17.166Z,20.83
2023-04-27T05:22:17.241Z,20.91
2023-04-27T05:23:17.147Z,20.95
2023-04-27T05:24:17.226Z,20.98
2023-04-27T05:25:17.129Z,21.01
2023-04-27T05:26:18.207Z,21.06
2023-04-27T05:27:17.191Z,21.11
2023-04-27T05:28:17.103Z,21.17
2023-04-27T05:29:17.149Z,21.22
2023-04-27T05:30:17.092Z,21.24
2023-04-27T05:31:17.149Z,21.27
2023-04-27T05:32:17.065Z,21.33
2023-04-27T05:33:17.130Z,21.36
2023-04-27T05:34:17.042Z,21.42
2023-04-27T05:35:17.102Z,21.48
2023-04-27T05:36:17.012Z,21.52
2023-04-27T05:37:17.067Z,21.57
2023-04-27T05:38:16.996Z,21.61
2023-04-27T05:39:17.052Z,21.69
2023-04-27T05:40:16.977Z,21.75
2023-04-27T05:41:17.032Z,21.82
2023-04-27T05:42:16.954Z,21.90
2023-04-27T05:43:17.008Z,21.95
2023-04-27T05:44:16.932Z,22.03
2023-04-27T05:45:16.978Z,22.09
2023-04-27T05:46:16.991Z,22.16
2023-04-27T05:47:16.966Z,22.21
2023-04-27T05:48:16.891Z,22.25
2023-04-27T05:49:16.940Z,22.35
2023-04-27T05:50:16.880Z,22.37
2023-04-27T05:51:16.921Z,22.43
2023-04-27T05:52:16.849Z,22.47
2023-04-27T05:53:16.887Z,22.52
2023-04-27T05:54:16.832Z,22.60
2023-04-27T05:55:16.876Z,22.66
2023-04-27T05:56:16.804Z,22.73
2023-04-27T05:57:16.866Z,22.84
2023-04-27T05:58:16.787Z,23.06
2023-04-27T05:59:16.830Z,23.30
2023-04-27T06:00:16.760Z,23.58
2023-04-27T06:01:16.802Z,23.95
2023-04-27T06:02:16.779Z,24.35
2023-04-27T06:03:17.091Z,24.76
2023-04-27T06:04:16.843Z,25.09
2023-04-27T06:05:16.793Z,25.40
2023-04-27T06:06:16.699Z,25.72
2023-04-27T06:07:16.740Z,26.03
2023-04-27T06:08:16.676Z,26.32
2023-04-27T06:09:16.757Z,26.59
2023-04-27T06:10:16.658Z,26.84
2023-04-27T06:11:16.950Z,27.08
2023-04-27T06:12:16.632Z,27.35
2023-04-27T06:13:16.672Z,27.58
2023-04-27T06:14:16.621Z,27.77
2023-04-27T06:15:16.794Z,28.00
2023-04-27T06:16:16.599Z,28.19
2023-04-27T06:17:16.632Z,28.41
2023-04-27T06:18:16.605Z,28.59
2023-04-27T06:19:16.615Z,28.76
2023-04-27T06:20:16.549Z,28.94
2023-04-27T06:21:16.590Z,29.07
2023-04-27T06:22:16.534Z,29.22
2023-04-27T06:23:16.577Z,29.37
2023-04-27T06:24:16.501Z,29.49
2023-04-27T06:25:16.556Z,29.60
2023-04-27T06:26:16.481Z,29.76
2023-04-27T06:27:16.531Z,29.87
2023-04-27T06:28:16.472Z,30.00
2023-04-27T06:29:16.500Z,30.10
2023-04-27T06:30:16.434Z,30.21
2023-04-27T06:31:16.514Z,30.31
2023-04-27T06:32:16.413Z,30.43
2023-04-27T06:33:16.470Z,30.52
2023-04-27T06:34:16.399Z,30.62
2023-04-27T06:35:16.431Z,30.69
2023-04-27T06:36:16.383Z,30.76
2023-04-27T06:37:16.423Z,30.86
2023-04-27T06:38:16.348Z,30.93
2023-04-27T06:39:16.559Z,31.02
2023-04-27T06:40:16.325Z,31.09
2023-04-27T06:41:16.377Z,31.17
2023-04-27T06:42:16.301Z,31.24
2023-04-27T06:43:16.345Z,31.31
2023-04-27T06:44:16.281Z,31.40
2023-04-27T06:45:16.335Z,31.47
2023-04-27T06:46:16.335Z,31.54
2023-04-27T06:47:16.299Z,31.61
2023-04-27T06:48:16.254Z,31.66
2023-04-27T06:49:16.380Z,31.71
2023-04-27T06:50:16.219Z,31.77
2023-04-27T06:51:16.266Z,31.81
2023-04-27T06:52:16.190Z,31.88
2023-04-27T06:53:16.243Z,31.92
2023-04-27T06:54:16.171Z,31.98
2023-04-27T06:55:16.230Z,32.03
2023-04-27T06:56:16.148Z,32.03
2023-04-27T06:57:16.198Z,32.06
2023-04-27T06:58:16.132Z,32.08
2023-04-27T06:59:16.176Z,32.08
2023-04-27T07:00:16.112Z,32.13
2023-04-27T07:01:16.201Z,32.15
2023-04-27T07:02:16.103Z,32.17
2023-04-27T07:03:16.221Z,32.14
2023-04-27T07:04:16.145Z,32.14
2023-04-27T07:05:16.113Z,32.10
2023-04-27T07:06:16.052Z,32.02
2023-04-27T07:07:16.090Z,31.95
2023-04-27T07:08:16.020Z,31.86
2023-04-27T07:09:26.422Z,31.73
2023-04-27T07:10:16.004Z,31.58
2023-04-27T07:11:16.060Z,31.40
2023-04-27T07:12:15.976Z,31.20
2023-04-27T07:13:16.027Z,30.98
2023-04-27T07:14:15.949Z,30.69
2023-04-27T07:15:16.076Z,30.37
2023-04-27T07:16:15.948Z,30.05
2023-04-27T07:17:16.006Z,29.67
2023-04-27T07:18:15.913Z,29.28
2023-04-27T07:19:16.185Z,28.85
2023-04-27T07:20:15.891Z,28.44
2023-04-27T07:21:15.933Z,27.86
2023-04-27T07:22:15.876Z,27.44
2023-04-27T07:23:15.920Z,27.07
2023-04-27T07:24:15.843Z,26.74
2023-04-27T07:25:15.885Z,26.51
2023-04-27T07:26:15.835Z,26.30
2023-04-27T07:27:15.868Z,26.07
2023-04-27T07:28:15.806Z,25.88
2023-04-27T07:29:26.368Z,25.72
2023-04-27T07:30:15.808Z,25.60
2023-04-27T07:31:15.880Z,25.46
2023-04-27T07:32:15.769Z,25.31
2023-04-27T07:33:15.814Z,25.24
2023-04-27T07:34:15.735Z,25.13
2023-04-27T07:35:16.789Z,25.05
2023-04-27T07:36:15.780Z,24.98
2023-04-27T07:37:15.694Z,24.88
2023-04-27T07:38:15.755Z,24.84
2023-04-27T07:39:15.953Z,24.79
2023-04-27T07:40:15.757Z,24.69
2023-04-27T07:41:15.648Z,24.63
2023-04-27T07:42:15.713Z,24.60
2023-04-27T07:43:15.633Z,24.54
2023-04-27T07:44:15.689Z,24.50
2023-04-27T07:45:15.604Z,24.45
2023-04-27T07:46:15.707Z,24.40
2023-04-27T07:47:15.581Z,24.36
2023-04-27T07:48:15.680Z,24.35
2023-04-27T07:49:15.880Z,24.30
2023-04-27T07:50:15.628Z,24.24
2023-04-27T07:51:15.538Z,24.24
2023-04-27T07:52:15.610Z,24.20
2023-04-27T07:53:15.528Z,24.21
2023-04-27T07:54:15.581Z,24.18
2023-04-27T07:55:15.488Z,24.16
2023-04-27T07:56:15.568Z,24.14
2023-04-27T07:57:15.468Z,24.13
2023-04-27T07:58:15.515Z,24.13
2023-04-27T07:59:15.911Z,24.13
2023-04-27T08:00:15.510Z,24.11
2023-04-27T08:01:15.442Z,24.08
2023-04-27T08:02:19.543Z,24.06
2023-04-27T08:03:15.691Z,24.05
2023-04-27T08:04:15.628Z,24.06
2023-04-27T08:05:15.912Z,24.03
2023-04-27T08:06:16.176Z,24.01
2023-04-27T08:07:15.974Z,24.03
2023-04-27T08:08:15.821Z,24.01
2023-04-27T08:09:15.630Z,24.01
2023-04-27T08:10:15.401Z,24.01
2023-04-27T08:11:15.328Z,24.01
2023-04-27T08:12:15.386Z,23.97
2023-04-27T08:13:15.309Z,24.01
2023-04-27T08:14:15.347Z,23.97
2023-04-27T08:15:15.291Z,23.98
2023-04-27T08:16:15.362Z,23.98
2023-04-27T08:17:15.265Z,24.01
2023-04-27T08:18:15.387Z,23.98
2023-04-27T08:19:15.648Z,23.95
2023-04-27T08:20:15.328Z,23.94
2023-04-27T08:21:15.217Z,23.90
2023-04-27T08:22:15.298Z,23.90
2023-04-27T08:23:15.203Z,23.87
2023-04-27T08:24:15.249Z,23.83
2023-04-27T08:25:15.180Z,23.82
2023-04-27T08:26:15.232Z,23.76
2023-04-27T08:27:15.155Z,23.73
2023-04-27T08:28:15.198Z,23.70
2023-04-27T08:29:26.220Z,23.67
2023-04-27T08:30:15.176Z,23.65
2023-04-27T08:31:15.136Z,23.61
2023-04-27T08:32:15.182Z,23.61
2023-04-27T08:33:15.103Z,23.61
2023-04-27T08:34:15.140Z,23.58
2023-04-27T08:35:15.073Z,23.55
2023-04-27T08:36:15.103Z,23.57
2023-04-27T08:37:15.050Z,23.55
2023-04-27T08:38:15.089Z,23.53
2023-04-27T08:39:15.308Z,23.50
2023-04-27T08:40:15.077Z,23.53
2023-04-27T08:41:21.342Z,23.50
2023-04-27T08:42:15.046Z,23.47
2023-04-27T08:43:15.012Z,23.47
2023-04-27T08:44:15.049Z,23.47
2023-04-27T08:45:14.961Z,23.45
2023-04-27T08:46:15.028Z,23.45
2023-04-27T08:47:14.934Z,23.45
2023-04-27T08:48:15.044Z,23.43
2023-04-27T08:49:16.807Z,23.45
2023-04-27T08:50:14.972Z,23.43
2023-04-27T08:51:14.898Z,23.42
2023-04-27T08:52:14.935Z,23.40
2023-04-27T08:53:14.875Z,23.40
2023-04-27T08:54:14.923Z,23.39
2023-04-27T08:55:16.751Z,23.39
2023-04-27T08:56:14.909Z,23.38
2023-04-27T08:57:14.833Z,23.38
2023-04-27T08:58:15.076Z,23.36
2023-04-27T08:59:15.573Z,23.38
2023-04-27T09:00:14.866Z,23.35
2023-04-27T09:01:14.790Z,23.33
2023-04-27T09:02:14.899Z,23.30
2023-04-27T09:03:14.852Z,23.33
2023-04-27T09:04:14.936Z,23.31
2023-04-27T09:05:14.820Z,23.31
2023-04-27T09:06:14.976Z,23.30
2023-04-27T09:07:14.726Z,23.28
2023-04-27T09:08:14.772Z,23.30
2023-04-27T09:09:14.947Z,23.28
2023-04-27T09:10:14.741Z,23.25
2023-04-27T09:11:14.683Z,23.23
2023-04-27T09:12:14.731Z,23.20
2023-04-27T09:13:14.659Z,23.18
2023-04-27T09:14:14.719Z,23.17
2023-04-27T09:15:14.640Z,23.12
2023-04-27T09:16:14.984Z,23.09
2023-04-27T09:17:14.616Z,23.09
2023-04-27T09:18:14.886Z,23.08
2023-04-27T09:19:14.868Z,23.03
2023-04-27T09:20:14.646Z,23.05
2023-04-27T09:21:14.572Z,22.99
2023-04-27T09:22:14.614Z,23.00
2023-04-27T09:23:14.552Z,23.02
2023-04-27T09:24:14.597Z,22.99
2023-04-27T09:25:14.531Z,23.00
2023-04-27T09:26:14.569Z,22.99
2023-04-27T09:27:14.514Z,22.96
2023-04-27T09:28:14.558Z,22.98
2023-04-27T09:29:14.956Z,22.96
2023-04-27T09:30:14.530Z,22.96
2023-04-27T09:31:14.511Z,23.00
2023-04-27T09:32:16.694Z,22.96
2023-04-27T09:33:14.457Z,22.96
2023-04-27T09:34:14.486Z,22.98
2023-04-27T09:35:14.417Z,22.96
2023-04-27T09:36:14.471Z,22.96
2023-04-27T09:37:14.399Z,22.96
2023-04-27T09:38:15.417Z,22.99
2023-04-27T09:39:14.644Z,23.03
2023-04-27T09:40:14.420Z,23.05
2023-04-27T09:41:14.376Z,23.09
2023-04-27T09:42:14.396Z,23.09
2023-04-27T09:43:14.355Z,23.12
2023-04-27T09:44:14.479Z,23.13
2023-04-27T09:45:14.316Z,23.18
2023-04-27T09:46:14.391Z,23.20
2023-04-27T09:47:14.297Z,23.21
2023-04-27T09:48:14.341Z,23.24
2023-04-27T09:49:14.510Z,23.23
2023-04-27T09:50:14.313Z,23.27
2023-04-27T09:51:14.247Z,23.30
2023-04-27T09:52:14.299Z,23.31
2023-04-27T09:53:14.229Z,23.33
2023-04-27T09:54:14.266Z,23.38
2023-04-27T09:55:14.202Z,23.39
2023-04-27T09:56:14.257Z,23.39
2023-04-27T09:57:14.180Z,23.45
2023-04-27T09:58:14.235Z,23.43
2023-04-27T09:59:14.429Z,23.45
2023-04-27T10:00:14.216Z,23.49
2023-04-27T10:01:14.153Z,23.49
2023-04-27T10:02:24.033Z,23.53
2023-04-27T10:03:14.203Z,23.55
2023-04-27T10:04:14.366Z,23.57
2023-04-27T10:05:14.243Z,23.57
2023-04-27T10:06:14.136Z,23.61
2023-04-27T10:07:14.084Z,23.60
2023-04-27T10:08:14.116Z,23.64
2023-04-27T10:09:14.244Z,23.65
2023-04-27T10:10:14.115Z,23.65
2023-04-27T10:11:14.029Z,23.67
2023-04-27T10:12:14.085Z,23.72
2023-04-27T10:13:14.015Z,23.68
2023-04-27T10:14:14.046Z,23.68
2023-04-27T10:15:14.104Z,23.70
2023-04-27T10:16:13.982Z,23.75
2023-04-27T10:17:14.042Z,23.75
2023-04-27T10:18:14.014Z,23.76
2023-04-27T10:19:14.427Z,23.77
2023-04-27T10:20:13.922Z,23.79
2023-04-27T10:21:13.982Z,23.79
2023-04-27T10:22:13.896Z,23.79
2023-04-27T10:23:13.968Z,23.79
2023-04-27T10:24:13.881Z,23.80
2023-04-27T10:25:13.949Z,23.80
2023-04-27T10:26:13.854Z,23.83
2023-04-27T10:27:14.024Z,23.83
2023-04-27T10:28:13.840Z,23.85
2023-04-27T10:29:14.128Z,23.85
2023-04-27T10:30:13.817Z,23.86
2023-04-27T10:31:13.937Z,23.80
2023-04-27T10:32:13.792Z,23.83
2023-04-27T10:33:13.875Z,23.85
2023-04-27T10:34:13.774Z,23.85
2023-04-27T10:35:13.846Z,23.83
2023-04-27T10:36:13.747Z,23.83
2023-04-27T10:37:13.825Z,23.86
2023-04-27T10:38:13.731Z,23.86
2023-04-27T10:39:14.231Z,23.86
2023-04-27T10:40:13.708Z,23.85
2023-04-27T10:41:13.781Z,23.87
2023-04-27T10:42:13.686Z,23.87
2023-04-27T10:43:13.747Z,23.85
2023-04-27T10:44:13.665Z,23.86
2023-04-27T10:45:13.732Z,23.86
2023-04-27T10:46:13.715Z,23.87
2023-04-27T10:47:13.723Z,23.86
2023-04-27T10:48:13.648Z,23.87
2023-04-27T10:49:13.942Z,23.86
2023-04-27T10:50:13.715Z,23.85
2023-04-27T10:51:13.674Z,23.86
2023-04-27T10:52:13.578Z,23.86
2023-04-27T10:53:13.658Z,23.86
2023-04-27T10:54:13.554Z,23.87
2023-04-27T10:55:13.615Z,23.83
2023-04-27T10:56:13.533Z,23.83
2023-04-27T10:57:13.603Z,23.85
2023-04-27T10:58:13.509Z,23.85
2023-04-27T10:59:13.815Z,23.83
2023-04-27T11:00:14.872Z,23.85
2023-04-27T11:01:13.613Z,23.85
2023-04-27T11:02:13.526Z,23.85
2023-04-27T11:03:13.725Z,23.83
2023-04-27T11:04:13.638Z,23.83
2023-04-27T11:05:13.565Z,23.83
2023-04-27T11:06:13.423Z,23.83
2023-04-27T11:07:13.502Z,23.85
2023-04-27T11:08:13.418Z,23.79
2023-04-27T11:09:13.502Z,23.83
2023-04-27T11:10:13.404Z,23.82
2023-04-27T11:11:15.408Z,23.82
2023-04-27T11:12:13.367Z,23.80
2023-04-27T11:13:13.434Z,23.77
2023-04-27T11:14:13.505Z,23.79
2023-04-27T11:15:13.505Z,23.79
2023-04-27T11:16:13.379Z,23.79
2023-04-27T11:17:13.382Z,23.77
2023-04-27T11:18:13.303Z,23.77
2023-04-27T11:19:13.578Z,23.77
2023-04-27T11:20:13.276Z,23.79
2023-04-27T11:21:13.376Z,23.79
2023-04-27T11:22:13.249Z,23.76
2023-04-27T11:23:13.330Z,23.77
2023-04-27T11:24:15.241Z,23.75
2023-04-27T11:25:13.306Z,23.76
2023-04-27T11:26:13.214Z,23.73
2023-04-27T11:27:13.283Z,23.75
2023-04-27T11:28:13.199Z,23.75
2023-04-27T11:29:13.656Z,23.76
2023-04-27T11:30:13.173Z,23.72
2023-04-27T11:31:13.289Z,23.72
2023-04-27T11:32:13.141Z,23.76
2023-04-27T11:33:13.309Z,23.72
2023-04-27T11:34:13.799Z,23.73
2023-04-27T11:35:13.207Z,23.75
2023-04-27T11:36:13.102Z,23.73
2023-04-27T11:37:18.399Z,23.76
2023-04-27T11:38:13.080Z,23.73
2023-04-27T11:39:13.398Z,23.75
2023-04-27T11:40:13.070Z,23.75
2023-04-27T11:41:13.139Z,23.73
2023-04-27T11:42:13.039Z,23.70
2023-04-27T11:43:13.122Z,23.75
2023-04-27T11:44:13.016Z,23.75
2023-04-27T11:45:13.087Z,23.73
2023-04-27T11:46:13.045Z,23.76
2023-04-27T11:47:13.072Z,23.75
2023-04-27T11:48:13.027Z,23.72
2023-04-27T11:49:13.296Z,23.75
2023-04-27T11:50:12.953Z,23.72
2023-04-27T11:51:13.027Z,23.70
2023-04-27T11:52:12.936Z,23.70
2023-04-27T11:53:13.011Z,23.72
2023-04-27T11:54:13.094Z,23.70
2023-04-27T11:55:12.968Z,23.70
2023-04-27T11:56:12.880Z,23.70
2023-04-27T11:57:12.964Z,23.67
2023-04-27T11:58:12.862Z,23.68
2023-04-27T11:59:13.131Z,23.67
2023-04-27T12:00:12.843Z,23.67
2023-04-27T12:01:12.907Z,23.65
2023-04-27T12:02:12.884Z,23.61
2023-04-27T12:03:13.134Z,23.61
2023-04-27T12:04:13.038Z,23.60
2023-04-27T12:05:13.363Z,23.58
2023-04-27T12:06:31.761Z,23.50
2023-04-27T12:07:12.852Z,23.53
2023-04-27T12:08:12.754Z,23.54
2023-04-27T12:09:12.830Z,23.50
2023-04-27T12:10:12.748Z,23.50
2023-04-27T12:11:12.825Z,23.50
2023-04-27T12:12:12.714Z,23.47
2023-04-27T12:13:12.794Z,23.49
2023-04-27T12:14:12.930Z,23.50
2023-04-27T12:15:12.739Z,23.49
2023-04-27T12:16:12.687Z,23.50
2023-04-27T12:17:12.788Z,23.47
2023-04-27T12:18:12.681Z,23.45
2023-04-27T12:19:12.707Z,23.46
2023-04-27T12:20:12.655Z,23.45
2023-04-27T12:21:12.709Z,23.45
2023-04-27T12:22:12.745Z,23.46
2023-04-27T12:23:12.591Z,23.43
2023-04-27T12:24:12.998Z,23.45
2023-04-27T12:25:12.594Z,23.45
2023-04-27T12:26:14.926Z,23.42
2023-04-27T12:27:12.565Z,23.40
2023-04-27T12:28:12.633Z,23.40
2023-04-27T12:29:12.529Z,23.40
2023-04-27T12:30:12.635Z,23.39
2023-04-27T12:31:12.562Z,23.39
2023-04-27T12:32:12.588Z,23.40
2023-04-27T12:33:12.583Z,23.39
2023-04-27T12:34:12.768Z,23.38
2023-04-27T12:35:12.660Z,23.35
2023-04-27T12:36:12.463Z,23.36
2023-04-27T12:37:12.512Z,23.36
2023-04-27T12:38:12.440Z,23.36
2023-04-27T12:39:12.494Z,23.33
2023-04-27T12:40:12.500Z,23.35
2023-04-27T12:41:12.461Z,23.35
2023-04-27T12:42:12.404Z,23.35
2023-04-27T12:43:12.436Z,23.35
2023-04-27T12:44:12.478Z,23.35
2023-04-27T12:45:12.439Z,23.30
2023-04-27T12:46:12.420Z,23.31
2023-04-27T12:47:19.977Z,23.33
2023-04-27T12:48:12.363Z,23.33
2023-04-27T12:49:12.393Z,23.31
2023-04-27T12:50:12.362Z,23.33
2023-04-27T12:51:12.359Z,23.33
2023-04-27T12:52:12.287Z,23.31